Terminal Aerodrome Forecast
Issued by NWS

Home | Current Version | Previous Version | Text Only | Print | Product List | Glossary On
Versions: 1 2 3 4 5 6 7 8 9 10 11 12 13 14 15 16 17 18
000
FTUS46 KOTX 220120 AAA
TAFPUW
TAF AMD
KPUW 220120Z 2201/2224 16018KT 6SM -RA BR BKN029 OVC035
     FM220800 21017G25KT P6SM -RA BKN025 OVC040 WS015/23050KT
     FM221500 23025G40KT P6SM -SHRA BKN040 OVC060
     FM221800 25025G35KT P6SM SCT040 BKN100=

USA.gov is the U.S. government's official web portal to all federal, state and local government web resources and services.